createdAt,value
2023-04-10T00:00:05.303Z,10.47
2023-04-10T00:02:33.602Z,10.23
2023-04-10T00:05:01.567Z,8.93
2023-04-10T00:07:29.404Z,10.37
2023-04-10T00:09:57.006Z,22.30
2023-04-10T00:12:25.178Z,16.57
2023-04-10T00:14:52.703Z,46.10
2023-04-10T00:17:20.183Z,15.30
2023-04-10T00:19:47.725Z,13.43
2023-04-10T00:22:15.414Z,15.20
2023-04-10T00:24:42.902Z,9.80
2023-04-10T00:27:10.441Z,7.60
2023-04-10T00:29:38.268Z,8.57
2023-04-10T00:32:05.815Z,7.67
2023-04-10T00:34:33.412Z,8.77
2023-04-10T00:37:01.120Z,8.43
2023-04-10T00:39:28.639Z,7.63
2023-04-10T00:41:57.562Z,8.43
2023-04-10T00:44:25.213Z,8.70
2023-04-10T00:46:52.852Z,8.27
2023-04-10T00:49:21.802Z,8.83
2023-04-10T00:51:49.631Z,7.93
2023-04-10T00:54:17.175Z,7.50
2023-04-10T00:56:46.829Z,7.93
2023-04-10T00:59:14.499Z,8.07
2023-04-10T01:01:43.355Z,8.50
2023-04-10T01:04:11.623Z,8.50
2023-04-10T01:07:04.099Z,7.87
2023-04-10T01:10:00.209Z,7.13
2023-04-10T01:12:54.805Z,7.87
2023-04-10T01:18:51.017Z,7.90
2023-04-10T01:21:21.097Z,9.03
2023-04-10T01:24:33.299Z,8.57
2023-04-10T01:27:29.460Z,7.43
2023-04-10T01:30:01.216Z,7.37
2023-04-10T01:32:30.856Z,8.10
2023-04-10T01:35:01.144Z,8.83
2023-04-10T01:37:31.890Z,8.33
2023-04-10T01:40:03.326Z,7.20
2023-04-10T01:42:38.740Z,8.60
2023-04-10T01:45:12.261Z,7.43
2023-04-10T01:47:40.157Z,7.53
2023-04-10T01:50:09.760Z,7.33
2023-04-10T01:52:38.081Z,7.13
2023-04-10T01:55:15.789Z,8.00
2023-04-10T01:57:49.236Z,7.80
2023-04-10T02:00:17.998Z,7.53
2023-04-10T02:02:46.736Z,7.93
2023-04-10T02:05:16.406Z,7.73
2023-04-10T02:07:57.501Z,7.53
2023-04-10T02:10:43.662Z,7.87
2023-04-10T02:13:14.533Z,7.60
2023-04-10T02:15:46.501Z,8.33
2023-04-10T02:18:18.609Z,8.60
2023-04-10T02:20:46.354Z,8.47
2023-04-10T02:23:17.352Z,8.60
2023-04-10T02:25:45.144Z,7.33
2023-04-10T02:28:12.714Z,8.23
2023-04-10T02:30:40.303Z,9.00
2023-04-10T02:33:07.817Z,8.17
2023-04-10T02:35:35.954Z,8.27
2023-04-10T02:38:04.265Z,8.70
2023-04-10T02:40:35.758Z,8.00
2023-04-10T02:43:29.628Z,7.97
2023-04-10T02:45:57.666Z,7.43
2023-04-10T02:48:27.682Z,8.07
2023-04-10T02:50:59.939Z,8.10
2023-04-10T02:53:29.100Z,9.43
2023-04-10T02:56:00.442Z,8.27
2023-04-10T02:58:30.373Z,8.67
2023-04-10T03:00:58.414Z,9.37
2023-04-10T03:03:46.183Z,9.87
2023-04-10T03:06:19.758Z,8.82
2023-04-10T03:08:47.945Z,9.87
2023-04-10T03:11:15.486Z,8.30
2023-04-10T03:13:42.974Z,9.77
2023-04-10T03:16:10.758Z,8.57
2023-04-10T03:18:38.603Z,8.40
2023-04-10T03:21:06.511Z,7.67
2023-04-10T03:23:34.069Z,7.80
2023-04-10T03:26:01.806Z,7.90
2023-04-10T03:28:32.827Z,7.40
2023-04-10T03:31:01.913Z,7.63
2023-04-10T03:33:32.997Z,7.47
2023-04-10T03:36:01.248Z,7.10
2023-04-10T03:38:28.815Z,7.27
2023-04-10T03:40:56.725Z,7.30
2023-04-10T03:43:26.365Z,7.03
2023-04-10T03:45:53.940Z,7.30
2023-04-10T03:48:22.591Z,7.50
2023-04-10T03:50:50.091Z,7.50
2023-04-10T03:53:17.750Z,6.70
2023-04-10T03:55:46.402Z,7.70
2023-04-10T03:58:14.017Z,6.10
2023-04-10T04:00:41.718Z,7.50
2023-04-10T04:03:20.803Z,6.27
2023-04-10T04:06:06.872Z,6.97
2023-04-10T04:08:41.674Z,6.87
2023-04-10T04:11:09.231Z,7.43
2023-04-10T04:13:47.695Z,6.13
2023-04-10T04:16:35.708Z,7.03
2023-04-10T04:19:29.210Z,6.87
2023-04-10T04:22:14.217Z,6.80
2023-04-10T04:25:00.382Z,6.83
2023-04-10T04:28:00.082Z,6.57
2023-04-10T04:30:56.177Z,6.33
2023-04-10T04:33:37.168Z,6.50
2023-04-10T04:36:24.941Z,6.67
2023-04-10T04:39:08.235Z,6.77
2023-04-10T04:41:50.500Z,6.17
2023-04-10T04:44:53.052Z,6.00
2023-04-10T04:47:43.806Z,6.33
2023-04-10T04:50:21.720Z,7.30
2023-04-10T04:53:24.635Z,6.47
2023-04-10T04:56:12.524Z,6.87
2023-04-10T04:59:00.085Z,6.33
2023-04-10T05:01:41.337Z,6.03
2023-04-10T05:04:20.593Z,6.87
2023-04-10T05:06:57.411Z,7.03
2023-04-10T05:10:00.452Z,6.30
2023-04-10T05:12:46.620Z,6.10
2023-04-10T05:15:25.586Z,6.37
2023-04-10T05:18:14.426Z,6.43
2023-04-10T05:20:56.302Z,6.50
2023-04-10T05:23:40.848Z,6.47
2023-04-10T05:26:30.559Z,7.70
2023-04-10T05:29:12.436Z,6.90
2023-04-10T05:32:07.879Z,6.37
2023-04-10T05:34:58.597Z,7.63
2023-04-10T05:37:43.562Z,7.20
2023-04-10T05:40:32.472Z,6.77
2023-04-10T05:43:21.977Z,7.33
2023-04-10T05:46:12.442Z,6.60
2023-04-10T05:48:55.600Z,6.00
2023-04-10T05:51:35.019Z,7.33
2023-04-10T05:54:18.324Z,7.50
2023-04-10T05:57:04.694Z,7.60
2023-04-10T06:00:08.159Z,7.10
2023-04-10T06:05:16.192Z,6.73
2023-04-10T06:07:44.224Z,6.53
2023-04-10T06:10:11.710Z,7.50
2023-04-10T06:12:39.438Z,7.20
2023-04-10T06:15:10.741Z,7.47
2023-04-10T06:17:43.635Z,6.87
2023-04-10T06:20:11.755Z,7.50
2023-04-10T06:22:39.229Z,6.90
2023-04-10T06:25:07.289Z,7.23
2023-04-10T06:27:38.214Z,7.67
2023-04-10T06:30:11.136Z,7.90
2023-04-10T06:32:38.734Z,7.23
2023-04-10T06:35:07.259Z,7.03
2023-04-10T06:37:34.898Z,7.47
2023-04-10T06:40:11.228Z,7.53
2023-04-10T06:42:38.787Z,7.43
2023-04-10T06:45:14.666Z,7.00
2023-04-10T06:47:42.233Z,7.50
2023-04-10T06:50:10.456Z,7.33
2023-04-10T06:52:38.075Z,7.70
2023-04-10T06:55:06.413Z,6.90
2023-04-10T06:57:33.904Z,6.63
2023-04-10T07:00:01.470Z,6.63
2023-04-10T07:02:29.129Z,6.87
2023-04-10T07:04:56.913Z,7.03
2023-04-10T07:07:24.515Z,7.33
2023-04-10T07:09:52.072Z,6.93
2023-04-10T07:12:19.584Z,7.87
2023-04-10T07:14:47.087Z,7.57
2023-04-10T07:17:14.545Z,6.80
2023-04-10T07:19:42.037Z,6.90
2023-04-10T07:22:09.558Z,6.93
2023-04-10T07:24:37.373Z,6.50
2023-04-10T07:27:04.903Z,6.80
2023-04-10T07:29:32.398Z,6.10
2023-04-10T07:32:00.139Z,5.97
2023-04-10T07:34:27.773Z,6.50
2023-04-10T07:36:55.289Z,6.20
2023-04-10T07:39:22.789Z,5.53
2023-04-10T07:41:50.453Z,6.37
2023-04-10T07:44:18.530Z,6.53
2023-04-10T07:46:46.013Z,6.07
2023-04-10T07:49:13.541Z,6.07
2023-04-10T07:51:41.053Z,5.57
2023-04-10T07:54:08.559Z,6.17
2023-04-10T07:56:36.229Z,6.23
2023-04-10T07:59:04.159Z,6.10
2023-04-10T08:01:31.786Z,6.03
2023-04-10T08:04:00.019Z,5.90
2023-04-10T08:06:28.606Z,5.90
2023-04-10T08:08:56.411Z,5.30
2023-04-10T08:11:30.271Z,5.13
2023-04-10T08:14:03.670Z,5.50
2023-04-10T08:16:36.277Z,6.10
2023-04-10T08:19:03.872Z,5.60
2023-04-10T08:21:32.013Z,4.63
2023-04-10T08:24:02.642Z,5.30
2023-04-10T08:26:30.335Z,4.80
2023-04-10T08:28:59.808Z,4.63
2023-04-10T08:31:28.923Z,4.43
2023-04-10T08:33:57.285Z,4.80
2023-04-10T08:36:27.088Z,4.60
2023-04-10T08:38:54.662Z,4.50
2023-04-10T08:41:22.345Z,3.23
2023-04-10T08:43:50.930Z,4.10
2023-04-10T08:46:18.590Z,3.83
2023-04-10T08:48:53.103Z,3.93
2023-04-10T08:51:26.132Z,3.60
2023-04-10T08:54:10.387Z,3.70
2023-04-10T08:56:40.982Z,3.67
2023-04-10T08:59:09.194Z,4.37
2023-04-10T09:01:37.103Z,3.40
2023-04-10T09:04:05.488Z,3.40
2023-04-10T09:06:33.435Z,4.17
2023-04-10T09:11:56.920Z,4.33
2023-04-10T09:14:33.664Z,2.97
2023-04-10T09:17:21.905Z,3.33
2023-04-10T09:19:53.198Z,3.17
2023-04-10T09:22:35.293Z,2.75
2023-04-10T09:25:04.765Z,3.40
2023-04-10T09:27:37.258Z,2.97
2023-04-10T09:30:07.013Z,3.25
2023-04-10T09:32:44.392Z,3.03
2023-04-10T09:35:14.377Z,3.40
2023-04-10T09:37:45.020Z,2.78
2023-04-10T09:40:25.043Z,3.15
2023-04-10T09:42:55.832Z,3.30
2023-04-10T09:45:23.440Z,3.58
2023-04-10T09:48:08.399Z,3.47
2023-04-10T09:50:43.566Z,2.83
2023-04-10T09:53:19.448Z,4.15
2023-04-10T09:55:49.305Z,3.67
2023-04-10T09:58:17.922Z,2.65
2023-04-10T10:00:47.996Z,2.70
2023-04-10T10:03:21.289Z,2.85
2023-04-10T10:05:51.938Z,2.85
2023-04-10T10:08:20.015Z,2.33
2023-04-10T10:10:57.499Z,2.88
2023-04-10T10:13:30.305Z,2.38
2023-04-10T10:16:27.805Z,2.10
2023-04-10T10:19:01.994Z,3.38
2023-04-10T10:21:30.569Z,2.70
2023-04-10T10:24:01.548Z,2.53
2023-04-10T10:26:30.443Z,2.38
2023-04-10T10:28:59.165Z,2.45
2023-04-10T10:31:32.599Z,2.40
2023-04-10T10:34:04.783Z,3.80
2023-04-10T10:36:32.358Z,3.00
2023-04-10T10:39:33.195Z,2.58
2023-04-10T10:42:32.751Z,2.42
2023-04-10T10:45:09.579Z,3.20
2023-04-10T10:47:45.775Z,2.33
2023-04-10T10:50:13.339Z,3.05
2023-04-10T10:52:46.678Z,2.55
2023-04-10T10:55:25.969Z,2.67
2023-04-10T10:57:56.002Z,2.45
2023-04-10T11:00:25.863Z,2.55
2023-04-10T11:03:08.511Z,2.35
2023-04-10T11:05:56.993Z,4.70
2023-04-10T11:08:33.658Z,2.03
2023-04-10T11:11:08.294Z,2.05
2023-04-10T11:13:41.431Z,2.03
2023-04-10T11:16:10.739Z,2.55
2023-04-10T11:18:55.895Z,2.47
2023-04-10T11:21:31.472Z,2.10
2023-04-10T11:23:59.226Z,1.85
2023-04-10T11:26:39.134Z,2.33
2023-04-10T11:29:17.127Z,2.15
2023-04-10T11:31:46.195Z,2.40
2023-04-10T11:34:15.584Z,2.10
2023-04-10T11:36:44.600Z,2.65
2023-04-10T11:39:17.857Z,1.65
2023-04-10T11:41:50.982Z,1.80
2023-04-10T11:44:31.543Z,2.05
2023-04-10T11:46:59.140Z,1.83
2023-04-10T11:49:36.910Z,1.95
2023-04-10T11:52:04.563Z,1.45
2023-04-10T11:54:32.492Z,1.50
2023-04-10T11:57:05.586Z,1.30
2023-04-10T11:59:34.599Z,1.60
2023-04-10T12:02:15.358Z,2.08
2023-04-10T12:04:45.952Z,1.90
2023-04-10T12:07:13.513Z,1.67
2023-04-10T12:09:41.348Z,1.70
2023-04-10T12:12:09.068Z,1.55
2023-04-10T12:14:42.601Z,1.60
2023-04-10T12:17:12.807Z,1.42
2023-04-10T12:19:41.452Z,1.40
2023-04-10T12:22:12.835Z,2.35
2023-04-10T12:24:44.472Z,1.30
2023-04-10T12:27:27.518Z,1.60
2023-04-10T12:29:57.993Z,2.95
2023-04-10T12:32:27.618Z,1.58
2023-04-10T12:34:57.412Z,1.67
2023-04-10T12:37:26.468Z,3.65
2023-04-10T12:41:02.972Z,2.00
2023-04-10T12:48:08.475Z,1.73
2023-04-10T12:50:50.109Z,1.35
2023-04-10T12:53:17.622Z,1.60
2023-04-10T12:55:59.335Z,1.70
2023-04-10T12:58:31.500Z,1.50
2023-04-10T13:01:07.279Z,1.30
2023-04-10T13:03:36.399Z,1.50
2023-04-10T13:06:08.220Z,1.40
2023-04-10T13:08:36.852Z,1.45
2023-04-10T13:11:04.516Z,1.60
2023-04-10T13:13:35.462Z,1.40
2023-04-10T13:16:03.080Z,1.40
2023-04-10T13:18:30.626Z,1.50
2023-04-10T13:20:58.161Z,1.40
2023-04-10T13:23:25.730Z,1.58
2023-04-10T13:25:53.624Z,1.40
2023-04-10T13:28:21.526Z,2.20
2023-04-10T13:30:49.080Z,1.30
2023-04-10T13:33:16.587Z,1.60
2023-04-10T13:35:44.136Z,3.92
2023-04-10T13:38:11.724Z,2.00
2023-04-10T13:40:39.325Z,1.40
2023-04-10T13:43:06.815Z,1.75
2023-04-10T13:45:34.865Z,1.10
2023-04-10T13:48:02.383Z,1.40
2023-04-10T13:50:29.886Z,1.35
2023-04-10T13:52:57.636Z,1.13
2023-04-10T13:55:25.390Z,1.58
2023-04-10T13:57:52.924Z,1.70
2023-04-10T14:00:20.549Z,1.45
2023-04-10T14:02:48.147Z,1.33
2023-04-10T14:05:15.811Z,1.40
2023-04-10T14:07:43.287Z,1.48
2023-04-10T14:10:11.105Z,1.45
2023-04-10T14:12:38.694Z,1.40
2023-04-10T14:15:07.067Z,1.85
2023-04-10T14:17:34.724Z,1.45
2023-04-10T14:20:02.278Z,1.40
2023-04-10T14:22:31.586Z,1.45
2023-04-10T14:25:11.908Z,1.27
2023-04-10T14:27:41.447Z,1.10
2023-04-10T14:30:10.438Z,1.40
2023-04-10T14:32:41.411Z,1.20
2023-04-10T14:35:09.702Z,1.17
2023-04-10T14:37:37.544Z,1.30
2023-04-10T14:40:05.971Z,1.35
2023-04-10T14:42:33.465Z,1.30
2023-04-10T14:45:00.996Z,1.25
2023-04-10T14:47:28.615Z,1.23
2023-04-10T14:49:56.161Z,1.45
2023-04-10T14:52:23.972Z,1.27
2023-04-10T14:54:51.470Z,1.00
2023-04-10T14:57:18.926Z,1.40
2023-04-10T14:59:46.403Z,1.48
2023-04-10T15:02:13.912Z,1.35
2023-04-10T15:04:42.431Z,1.20
2023-04-10T15:07:09.912Z,1.20
2023-04-10T15:09:37.787Z,1.20
2023-04-10T15:12:05.420Z,1.40
2023-04-10T15:14:33.305Z,1.33
2023-04-10T15:17:00.894Z,1.40
2023-04-10T15:19:28.558Z,1.60
2023-04-10T15:21:56.033Z,1.13
2023-04-10T15:24:23.546Z,1.80
2023-04-10T15:26:51.114Z,1.70
2023-04-10T15:29:18.795Z,1.50
2023-04-10T15:31:46.309Z,1.67
2023-04-10T15:34:13.789Z,1.58
2023-04-10T15:36:41.274Z,2.35
2023-04-10T15:39:08.870Z,1.92
2023-04-10T15:41:36.443Z,1.60
2023-04-10T15:44:04.392Z,1.98
2023-04-10T15:46:33.088Z,1.75
2023-04-10T15:49:01.053Z,1.98
2023-04-10T15:51:28.625Z,1.45
2023-04-10T15:53:56.296Z,0.88
2023-04-10T15:56:23.890Z,1.30
2023-04-10T15:58:51.518Z,1.50
2023-04-10T16:01:19.103Z,1.38
2023-04-10T16:03:46.817Z,1.60
2023-04-10T16:06:14.805Z,1.67
2023-04-10T16:08:42.390Z,1.73
2023-04-10T16:11:09.903Z,1.80
2023-04-10T16:13:39.840Z,1.33
2023-04-10T16:16:15.437Z,1.60
2023-04-10T16:18:46.452Z,1.25
2023-04-10T16:21:14.868Z,1.65
2023-04-10T16:23:42.274Z,2.97
2023-04-10T16:26:09.580Z,2.55
2023-04-10T16:28:37.104Z,1.63
2023-04-10T16:31:04.936Z,1.50
2023-04-10T16:33:32.563Z,1.55
2023-04-10T16:36:02.928Z,1.35
2023-04-10T16:38:31.590Z,1.42
2023-04-10T16:41:03.107Z,1.58
2023-04-10T16:43:31.189Z,1.40
2023-04-10T16:45:59.845Z,1.30
2023-04-10T16:48:27.508Z,1.63
2023-04-10T16:50:55.063Z,1.40
2023-04-10T16:53:22.565Z,1.40
2023-04-10T16:56:01.933Z,1.40
2023-04-10T16:58:31.213Z,1.50
2023-04-10T17:00:58.809Z,1.60
2023-04-10T17:03:26.428Z,1.50
2023-04-10T17:05:53.949Z,2.00
2023-04-10T17:08:21.494Z,1.80
2023-04-10T17:10:49.008Z,1.60
2023-04-10T17:13:17.419Z,1.70
2023-04-10T17:15:46.146Z,1.48
2023-04-10T17:18:15.055Z,1.50
2023-04-10T17:20:42.597Z,1.70
2023-04-10T17:23:11.234Z,1.83
2023-04-10T17:25:42.092Z,1.60
2023-04-10T17:28:09.592Z,1.88
2023-04-10T17:30:37.244Z,1.67
2023-04-10T17:33:04.897Z,1.52
2023-04-10T17:35:32.414Z,1.80
2023-04-10T17:37:59.906Z,1.40
2023-04-10T17:40:27.450Z,1.80
2023-04-10T17:42:54.925Z,1.23
2023-04-10T17:45:22.445Z,1.50
2023-04-10T17:47:49.939Z,2.05
2023-04-10T17:50:17.477Z,1.48
2023-04-10T17:52:44.944Z,1.40
2023-04-10T17:55:12.567Z,1.30
2023-04-10T17:57:40.134Z,1.30
2023-04-10T18:00:09.416Z,1.30
2023-04-10T18:02:37.321Z,1.35
2023-04-10T18:05:06.427Z,1.63
2023-04-10T18:07:33.879Z,1.48
2023-04-10T18:10:01.635Z,1.80
2023-04-10T18:12:29.135Z,1.55
2023-04-10T18:14:56.617Z,1.50
2023-04-10T18:17:24.131Z,1.50
2023-04-10T18:19:51.765Z,1.67
2023-04-10T18:22:19.665Z,2.83
2023-04-10T18:24:50.209Z,1.90
2023-04-10T18:27:17.677Z,2.90
2023-04-10T18:29:45.732Z,3.00
2023-04-10T18:32:13.263Z,1.92
2023-04-10T18:34:40.785Z,2.22
2023-04-10T18:37:09.860Z,2.30
2023-04-10T18:39:38.202Z,2.03
2023-04-10T18:42:10.471Z,1.80
2023-04-10T18:44:38.001Z,2.80
2023-04-10T18:47:05.608Z,1.85
2023-04-10T18:49:33.242Z,2.33
2023-04-10T18:52:00.902Z,2.35
2023-04-10T18:54:29.768Z,3.05
2023-04-10T18:56:57.355Z,3.45
2023-04-10T18:59:24.908Z,2.00
2023-04-10T19:01:52.863Z,1.77
2023-04-10T19:04:20.665Z,1.70
2023-04-10T19:06:48.322Z,1.88
2023-04-10T19:09:15.875Z,2.00
2023-04-10T19:11:43.334Z,1.88
2023-04-10T19:14:10.965Z,1.73
2023-04-10T19:16:38.488Z,1.63
2023-04-10T19:19:06.000Z,2.50
2023-04-10T19:21:34.376Z,3.70
2023-04-10T19:24:02.171Z,1.88
2023-04-10T19:26:29.677Z,2.70
2023-04-10T19:28:57.514Z,2.60
2023-04-10T19:31:27.530Z,2.60
2023-04-10T19:33:55.998Z,2.90
2023-04-10T19:36:23.515Z,5.60
2023-04-10T19:38:51.326Z,4.85
2023-04-10T19:41:18.842Z,3.50
2023-04-10T19:43:46.433Z,3.50
2023-04-10T19:46:21.211Z,2.42
2023-04-10T19:48:49.121Z,2.55
2023-04-10T19:51:16.614Z,2.17
2023-04-10T19:53:44.227Z,1.88
2023-04-10T19:56:11.729Z,2.10
2023-04-10T19:58:40.982Z,2.17
2023-04-10T20:01:24.183Z,1.70
2023-04-10T20:03:51.947Z,1.95
2023-04-10T20:06:21.393Z,2.20
2023-04-10T20:08:48.877Z,2.25
2023-04-10T20:11:16.721Z,2.00
2023-04-10T20:13:44.218Z,1.98
2023-04-10T20:16:12.061Z,1.80
2023-04-10T20:18:40.223Z,2.22
2023-04-10T20:21:08.155Z,2.30
2023-04-10T20:23:36.634Z,1.85
2023-04-10T20:26:04.209Z,2.28
2023-04-10T20:28:31.725Z,1.80
2023-04-10T20:30:59.238Z,2.30
2023-04-10T20:33:26.712Z,2.05
2023-04-10T20:35:54.276Z,2.15
2023-04-10T20:38:21.822Z,2.13
2023-04-10T20:40:49.295Z,2.97
2023-04-10T20:43:18.541Z,2.63
2023-04-10T20:45:46.026Z,2.83
2023-04-10T20:48:13.746Z,3.20
2023-04-10T20:50:46.575Z,2.30
2023-04-10T20:53:14.068Z,2.47
2023-04-10T20:55:41.612Z,2.55
2023-04-10T20:58:09.086Z,3.05
2023-04-10T21:00:37.350Z,2.80
2023-04-10T21:03:05.552Z,2.90
2023-04-10T21:05:33.126Z,2.70
2023-04-10T21:08:00.666Z,2.65
2023-04-10T21:10:28.171Z,2.63
2023-04-10T21:12:55.644Z,2.28
2023-04-10T21:15:23.137Z,2.60
2023-04-10T21:17:50.685Z,2.80
2023-04-10T21:20:18.381Z,3.47
2023-04-10T21:22:45.874Z,3.67
2023-04-10T21:25:13.420Z,2.42
2023-04-10T21:27:40.943Z,3.70
2023-04-10T21:30:09.087Z,3.05
2023-04-10T21:32:36.639Z,4.57
2023-04-10T21:35:04.448Z,3.28
2023-04-10T21:37:31.919Z,3.30
2023-04-10T21:39:59.515Z,2.92
2023-04-10T21:42:26.995Z,2.60
2023-04-10T21:44:54.796Z,2.40
2023-04-10T21:47:22.274Z,1.88
2023-04-10T21:49:49.766Z,1.90
2023-04-10T21:52:17.247Z,2.45
2023-04-10T21:54:44.762Z,2.22
2023-04-10T21:57:12.245Z,1.80
2023-04-10T21:59:39.768Z,2.00
2023-04-10T22:02:07.382Z,2.10
2023-04-10T22:04:38.902Z,1.98
2023-04-10T22:07:12.182Z,2.08
2023-04-10T22:09:39.717Z,2.08
2023-04-10T22:12:07.446Z,1.95
2023-04-10T22:14:35.022Z,1.90
2023-04-10T22:17:02.574Z,1.73
2023-04-10T22:19:30.243Z,2.00
2023-04-10T22:21:57.741Z,2.30
2023-04-10T22:24:25.345Z,1.77
2023-04-10T22:26:52.892Z,1.80
2023-04-10T22:29:20.368Z,1.85
2023-04-10T22:31:47.878Z,1.70
2023-04-10T22:34:15.371Z,1.98
2023-04-10T22:36:42.870Z,1.58
2023-04-10T22:39:10.953Z,1.92
2023-04-10T22:41:38.569Z,1.60
2023-04-10T22:44:07.296Z,1.80
2023-04-10T22:46:38.182Z,1.67
2023-04-10T22:49:06.429Z,1.60
2023-04-10T22:51:33.958Z,2.15
2023-04-10T22:54:01.528Z,2.10
2023-04-10T22:56:29.368Z,1.90
2023-04-10T22:58:56.994Z,1.67
2023-04-10T23:01:24.722Z,1.80
2023-04-10T23:03:53.710Z,1.70
2023-04-10T23:06:21.516Z,1.58
2023-04-10T23:08:49.006Z,1.52
2023-04-10T23:11:16.608Z,1.52
2023-04-10T23:13:44.163Z,2.08
2023-04-10T23:16:11.977Z,1.80
2023-04-10T23:18:39.492Z,1.70
2023-04-10T23:21:07.525Z,1.63
2023-04-10T23:23:35.312Z,1.70
2023-04-10T23:26:02.960Z,1.67
2023-04-10T23:28:30.460Z,1.42
2023-04-10T23:30:58.006Z,1.80
2023-04-10T23:33:25.566Z,1.98
2023-04-10T23:35:53.128Z,1.80
2023-04-10T23:38:21.207Z,1.83
2023-04-10T23:40:48.738Z,1.75
2023-04-10T23:43:16.244Z,1.60
2023-04-10T23:45:43.723Z,1.75
2023-04-10T23:48:11.956Z,1.63
2023-04-10T23:50:39.482Z,2.08
2023-04-10T23:53:09.799Z,2.10
2023-04-10T23:55:39.323Z,1.95
2023-04-10T23:58:07.091Z,1.60
